Time;durP1;ratioP1;P1;durP2;ratioP2;P2;SDS_P1;SDS_P2;PMS_P1;PMS_P2;Temp;Humidity;BMP_temperature;BMP_pressure;BME280_temperature;BME280_humidity;BME280_pressure;Samples;Min_cycle;Max_cycle;Signal;HPM_P1;HPM_P2
2023/06/15 00:02:03;;;;;;;10.25;5.53;;;;;;;;;;4856776;28;20694;-68
2023/06/15 00:04:29;;;;;;;9.77;5.50;;;;;;;;;;4850576;28;20044;-68
2023/06/15 00:06:54;;;;;;;8.98;5.07;;;;;;;;;;4859932;28;20608;-68
2023/06/15 00:09:19;;;;;;;7.40;5.28;;;;;;;;;;4840143;28;20033;-68
2023/06/15 00:11:45;;;;;;;9.50;5.32;;;;;;;;;;4857801;28;20037;-68
2023/06/15 00:14:10;;;;;;;8.70;5.35;;;;;;;;;;4850586;28;20523;-68
2023/06/15 00:16:41;;;;;;;11.88;5.45;;;;;;;;;;4853869;28;20145;-68
2023/06/15 00:19:07;;;;;;;11.95;5.78;;;;;;;;;;4842784;28;20075;-68
2023/06/15 00:21:33;;;;;;;8.68;5.32;;;;;;;;;;4842666;28;20078;-67
2023/06/15 00:23:58;;;;;;;9.30;5.10;;;;;;;;;;4839774;28;20164;-68
2023/06/15 00:26:27;;;;;;;10.98;5.57;;;;;;;;;;4924270;28;20634;-68
2023/06/15 00:28:52;;;;;;;9.52;5.50;;;;;;;;;;4861574;28;20043;-67
2023/06/15 00:31:17;;;;;;;10.43;5.32;;;;;;;;;;4858200;28;20041;-67
2023/06/15 00:33:43;;;;;;;8.88;6.50;;;;;;;;;;4859691;28;20592;-67
2023/06/15 00:36:12;;;;;;;8.30;5.38;;;;;;;;;;4844522;28;20038;-67
2023/06/15 00:38:37;;;;;;;12.60;6.28;;;;;;;;;;4860125;28;20037;-67
2023/06/15 00:41:02;;;;;;;9.65;5.30;;;;;;;;;;4841644;28;20042;-67
2023/06/15 00:43:28;;;;;;;9.40;5.75;;;;;;;;;;4924328;28;20036;-67
2023/06/15 00:45:53;;;;;;;11.35;5.60;;;;;;;;;;4845414;28;20041;-67
2023/06/15 00:48:20;;;;;;;7.85;5.90;;;;;;;;;;4900345;28;20477;-67
2023/06/15 00:50:46;;;;;;;8.60;6.00;;;;;;;;;;4839181;28;20053;-69
2023/06/15 00:53:14;;;;;;;9.35;6.07;;;;;;;;;;4858511;28;20046;-68
2023/06/15 00:55:43;;;;;;;9.10;5.70;;;;;;;;;;4922222;28;20082;-67
2023/06/15 00:58:10;;;;;;;8.13;6.30;;;;;;;;;;4849868;28;20069;-66
2023/06/15 01:00:37;;;;;;;8.55;6.07;;;;;;;;;;4860102;28;20570;-67
2023/06/15 01:03:06;;;;;;;10.60;5.97;;;;;;;;;;4840227;28;20045;-67
2023/06/15 01:05:34;;;;;;;10.70;6.60;;;;;;;;;;4862124;28;20052;-67
2023/06/15 01:08:04;;;;;;;8.60;6.65;;;;;;;;;;4848332;28;20546;-68
2023/06/15 01:10:32;;;;;;;13.30;6.28;;;;;;;;;;4857468;28;20080;-68
2023/06/15 01:13:01;;;;;;;9.40;6.40;;;;;;;;;;4847765;28;20053;-68
2023/06/15 01:15:27;;;;;;;10.57;6.40;;;;;;;;;;4845534;28;20048;-68
2023/06/15 01:17:57;;;;;;;11.00;6.53;;;;;;;;;;4843392;28;20047;-67
2023/06/15 01:20:42;;;;;;;9.48;6.47;;;;;;;;;;4845506;28;20040;-68
2023/06/15 01:23:25;;;;;;;11.82;6.63;;;;;;;;;;4858606;28;20142;-67
2023/06/15 01:25:53;;;;;;;12.20;6.95;;;;;;;;;;4861980;28;20041;-68
2023/06/15 01:28:20;;;;;;;12.43;6.40;;;;;;;;;;4838941;28;20132;-67
2023/06/15 01:30:54;;;;;;;9.70;6.10;;;;;;;;;;4843428;28;22361;-67
2023/06/15 01:33:20;;;;;;;8.40;6.20;;;;;;;;;;4845254;28;20053;-66
2023/06/15 01:35:45;;;;;;;11.50;5.95;;;;;;;;;;4853939;28;20182;-67
2023/06/15 01:38:11;;;;;;;13.85;6.18;;;;;;;;;;4927537;28;20037;-67
2023/06/15 01:40:38;;;;;;;9.93;6.50;;;;;;;;;;4841626;28;20042;-68
2023/06/15 01:43:07;;;;;;;11.02;6.28;;;;;;;;;;4916015;28;20383;-66
2023/06/15 01:45:34;;;;;;;7.68;5.80;;;;;;;;;;4857881;28;20060;-66
2023/06/15 01:47:59;;;;;;;11.10;6.75;;;;;;;;;;4849419;28;20038;-67
2023/06/15 01:50:25;;;;;;;9.60;6.25;;;;;;;;;;4855580;28;20051;-67
2023/06/15 01:52:50;;;;;;;9.27;6.32;;;;;;;;;;4851332;28;20161;-67
2023/06/15 01:55:15;;;;;;;11.40;5.97;;;;;;;;;;4858669;28;20056;-68
2023/06/15 01:57:41;;;;;;;10.68;6.70;;;;;;;;;;4846975;28;20049;-67
2023/06/15 02:00:07;;;;;;;9.45;6.25;;;;;;;;;;4842506;28;20056;-67
2023/06/15 02:02:33;;;;;;;13.40;6.47;;;;;;;;;;4853447;28;20121;-67
2023/06/15 02:04:58;;;;;;;11.48;6.38;;;;;;;;;;4857713;28;20093;-67
2023/06/15 02:07:24;;;;;;;7.35;5.75;;;;;;;;;;4843665;28;20048;-68
2023/06/15 02:09:49;;;;;;;12.88;6.57;;;;;;;;;;4860559;28;20076;-68
2023/06/15 02:12:14;;;;;;;10.25;6.53;;;;;;;;;;4861970;28;20553;-67
2023/06/15 02:14:42;;;;;;;8.10;6.30;;;;;;;;;;4831835;28;20054;-68
2023/06/15 02:17:07;;;;;;;9.40;6.80;;;;;;;;;;4829279;28;20044;-67
2023/06/15 02:19:33;;;;;;;8.20;6.57;;;;;;;;;;4816838;29;20041;-67
2023/06/15 02:21:58;;;;;;;14.07;6.55;;;;;;;;;;4834864;29;20042;-67
2023/06/15 02:24:23;;;;;;;10.43;6.82;;;;;;;;;;4834835;29;20033;-67
2023/06/15 02:26:49;;;;;;;10.57;6.82;;;;;;;;;;4831811;29;20137;-67
2023/06/15 02:29:14;;;;;;;11.73;6.50;;;;;;;;;;4831251;29;20503;-67
2023/06/15 02:31:40;;;;;;;9.75;6.95;;;;;;;;;;4831854;28;20033;-67
2023/06/15 02:34:05;;;;;;;9.15;6.72;;;;;;;;;;4834166;28;20987;-67
2023/06/15 02:36:31;;;;;;;7.82;6.28;;;;;;;;;;4834268;28;20120;-67
2023/06/15 02:38:57;;;;;;;11.48;7.22;;;;;;;;;;4834204;28;20042;-68
2023/06/15 02:41:22;;;;;;;10.18;6.65;;;;;;;;;;4830784;28;20050;-67
2023/06/15 02:43:47;;;;;;;11.43;6.90;;;;;;;;;;4834905;29;20061;-67
2023/06/15 02:46:15;;;;;;;11.95;6.85;;;;;;;;;;4833386;28;20045;-67
2023/06/15 02:48:41;;;;;;;9.75;6.53;;;;;;;;;;4834709;29;20642;-67
2023/06/15 02:51:06;;;;;;;9.65;6.40;;;;;;;;;;4831625;29;20038;-67
2023/06/15 02:53:31;;;;;;;14.55;6.57;;;;;;;;;;4847916;28;20046;-68
2023/06/15 02:55:57;;;;;;;8.68;6.72;;;;;;;;;;4832265;28;20041;-66
2023/06/15 02:58:24;;;;;;;10.88;6.22;;;;;;;;;;4833546;29;20038;-68
2023/06/15 03:00:51;;;;;;;10.38;6.40;;;;;;;;;;4835780;29;20168;-67
2023/06/15 03:03:22;;;;;;;9.88;6.15;;;;;;;;;;4833340;28;20109;-67
2023/06/15 03:05:51;;;;;;;11.98;6.93;;;;;;;;;;4831969;28;20122;-67
2023/06/15 03:08:18;;;;;;;11.20;6.80;;;;;;;;;;4834145;28;22362;-67
2023/06/15 03:10:44;;;;;;;9.95;6.25;;;;;;;;;;4833811;28;20123;-67
2023/06/15 03:13:12;;;;;;;10.35;6.65;;;;;;;;;;4852279;29;20083;-67
2023/06/15 03:15:37;;;;;;;9.02;6.45;;;;;;;;;;4843363;28;20500;-67
2023/06/15 03:18:04;;;;;;;9.55;6.25;;;;;;;;;;4860779;28;20096;-68
2023/06/15 03:20:32;;;;;;;9.60;5.82;;;;;;;;;;4860259;29;20041;-66
2023/06/15 03:22:58;;;;;;;8.05;6.20;;;;;;;;;;4859924;28;20045;-67
2023/06/15 03:25:26;;;;;;;12.93;7.05;;;;;;;;;;4842837;28;20048;-67
2023/06/15 03:27:53;;;;;;;11.18;6.68;;;;;;;;;;4843384;28;20038;-67
2023/06/15 03:30:21;;;;;;;9.93;6.45;;;;;;;;;;4842979;28;20065;-67
2023/06/15 03:32:49;;;;;;;10.95;6.25;;;;;;;;;;4846623;28;20053;-69
2023/06/15 03:35:15;;;;;;;9.15;6.00;;;;;;;;;;4859422;28;20675;-69
2023/06/15 03:37:40;;;;;;;9.50;6.30;;;;;;;;;;4859140;28;20062;-67
2023/06/15 03:40:06;;;;;;;11.45;6.25;;;;;;;;;;4841010;28;20142;-67
2023/06/15 03:42:32;;;;;;;11.25;6.15;;;;;;;;;;4842370;28;20052;-67
2023/06/15 03:44:58;;;;;;;9.77;6.20;;;;;;;;;;4859909;29;20044;-67
2023/06/15 03:47:23;;;;;;;11.52;5.80;;;;;;;;;;4844515;28;20041;-67
2023/06/15 03:49:50;;;;;;;12.00;6.30;;;;;;;;;;4905740;28;20048;-67
2023/06/15 03:52:16;;;;;;;11.40;6.22;;;;;;;;;;4860842;28;20033;-67
2023/06/15 03:54:43;;;;;;;10.93;6.38;;;;;;;;;;4842720;28;20062;-68
2023/06/15 03:57:08;;;;;;;11.63;6.30;;;;;;;;;;4844822;28;20095;-67
2023/06/15 03:59:34;;;;;;;9.55;5.95;;;;;;;;;;4844708;28;20037;-67
2023/06/15 04:02:02;;;;;;;11.32;5.97;;;;;;;;;;4858788;28;20065;-67
2023/06/15 04:04:27;;;;;;;10.18;5.65;;;;;;;;;;4841893;28;20049;-67
2023/06/15 04:06:53;;;;;;;10.75;5.55;;;;;;;;;;4843828;28;20033;-67
2023/06/15 04:09:18;;;;;;;9.52;6.20;;;;;;;;;;4847519;28;20040;-68
2023/06/15 04:11:44;;;;;;;9.77;5.88;;;;;;;;;;4864347;28;20044;-68
2023/06/15 04:14:09;;;;;;;9.75;5.47;;;;;;;;;;4874801;28;20064;-67
2023/06/15 04:16:34;;;;;;;8.45;5.57;;;;;;;;;;4875883;28;20141;-67
2023/06/15 04:19:00;;;;;;;8.48;5.78;;;;;;;;;;4873370;28;20033;-68
2023/06/15 04:21:25;;;;;;;8.30;5.97;;;;;;;;;;4847636;28;20045;-68
2023/06/15 04:23:50;;;;;;;8.50;5.95;;;;;;;;;;4847530;28;20099;-68
2023/06/15 04:26:17;;;;;;;9.00;5.18;;;;;;;;;;4847387;28;20045;-68
2023/06/15 04:28:45;;;;;;;7.10;5.93;;;;;;;;;;4846532;28;20033;-68
2023/06/15 04:31:12;;;;;;;9.18;6.15;;;;;;;;;;4843817;28;20036;-68
2023/06/15 04:33:42;;;;;;;9.55;5.97;;;;;;;;;;4861151;28;20052;-68
2023/06/15 04:36:12;;;;;;;6.90;6.20;;;;;;;;;;4846538;28;20037;-68
2023/06/15 04:38:38;;;;;;;7.97;5.20;;;;;;;;;;4851381;28;20041;-68
2023/06/15 04:41:04;;;;;;;9.10;5.22;;;;;;;;;;4850636;28;20040;-67
2023/06/15 04:43:31;;;;;;;8.30;5.43;;;;;;;;;;4853477;28;20043;-67
2023/06/15 04:45:57;;;;;;;8.65;5.85;;;;;;;;;;4852253;28;20038;-68
2023/06/15 04:48:27;;;;;;;7.72;5.38;;;;;;;;;;4853350;28;20116;-67
2023/06/15 04:50:52;;;;;;;11.23;6.32;;;;;;;;;;4852635;28;20037;-67
2023/06/15 04:53:18;;;;;;;7.70;5.68;;;;;;;;;;4852431;28;20052;-67
2023/06/15 04:55:43;;;;;;;11.27;6.18;;;;;;;;;;4853125;28;20184;-68
2023/06/15 04:58:09;;;;;;;14.15;7.18;;;;;;;;;;4867053;28;20149;-68
2023/06/15 05:00:34;;;;;;;9.82;6.18;;;;;;;;;;4853013;28;20144;-68
2023/06/15 05:02:59;;;;;;;13.52;6.57;;;;;;;;;;4848234;28;20045;-69
2023/06/15 05:05:25;;;;;;;17.52;7.28;;;;;;;;;;4847788;29;20039;-68
2023/06/15 05:07:50;;;;;;;9.98;6.78;;;;;;;;;;4853352;28;20106;-68
2023/06/15 05:10:17;;;;;;;9.85;6.38;;;;;;;;;;4852180;28;20587;-67
2023/06/15 05:12:43;;;;;;;12.88;5.93;;;;;;;;;;4853381;28;20041;-68
2023/06/15 05:15:08;;;;;;;9.70;5.82;;;;;;;;;;4873248;28;20041;-67
2023/06/15 05:17:33;;;;;;;11.32;6.20;;;;;;;;;;4893093;28;20044;-68
2023/06/15 05:19:59;;;;;;;12.30;5.43;;;;;;;;;;4904605;28;22389;-69
2023/06/15 05:22:24;;;;;;;8.30;5.10;;;;;;;;;;4846689;28;20137;-66
2023/06/15 05:24:49;;;;;;;8.35;4.85;;;;;;;;;;4856114;28;20092;-68
2023/06/15 05:27:14;;;;;;;11.07;5.20;;;;;;;;;;4850687;28;20037;-68
2023/06/15 05:29:42;;;;;;;7.30;4.10;;;;;;;;;;4847932;28;20049;-69
2023/06/15 05:32:10;;;;;;;12.10;4.75;;;;;;;;;;4850147;28;20029;-68
2023/06/15 05:34:35;;;;;;;6.80;4.47;;;;;;;;;;4862358;28;21263;-68
2023/06/15 05:37:00;;;;;;;9.45;4.60;;;;;;;;;;4852118;28;20080;-68
2023/06/15 05:39:28;;;;;;;9.45;4.43;;;;;;;;;;4863834;28;20045;-68
2023/06/15 05:41:53;;;;;;;9.80;4.30;;;;;;;;;;4864132;28;20065;-68
2023/06/15 05:44:21;;;;;;;10.25;4.10;;;;;;;;;;4850438;28;20053;-68
2023/06/15 05:46:46;;;;;;;8.65;3.92;;;;;;;;;;4845435;28;20041;-68
2023/06/15 05:49:12;;;;;;;6.63;3.70;;;;;;;;;;4855554;28;20034;-68
2023/06/15 05:51:37;;;;;;;9.05;3.80;;;;;;;;;;4855647;28;20044;-68
2023/06/15 05:54:02;;;;;;;10.10;3.70;;;;;;;;;;4849272;28;20053;-70
2023/06/15 05:56:28;;;;;;;5.65;3.38;;;;;;;;;;4869712;28;20033;-68
2023/06/15 05:58:53;;;;;;;10.32;4.10;;;;;;;;;;4847945;28;20676;-68
2023/06/15 06:01:19;;;;;;;6.93;3.70;;;;;;;;;;4845938;28;20048;-68
2023/06/15 06:03:44;;;;;;;7.28;3.65;;;;;;;;;;4858983;28;22223;-69
2023/06/15 06:06:09;;;;;;;9.52;3.17;;;;;;;;;;4862852;28;20550;-67
2023/06/15 06:08:35;;;;;;;8.10;3.63;;;;;;;;;;4933080;28;20051;-68
2023/06/15 06:11:07;;;;;;;9.15;3.90;;;;;;;;;;4847369;28;20143;-67
2023/06/15 06:13:33;;;;;;;5.22;3.38;;;;;;;;;;4844588;28;20063;-68
2023/06/15 06:16:01;;;;;;;9.27;4.00;;;;;;;;;;4849990;28;20035;-69
2023/06/15 06:18:26;;;;;;;10.10;4.65;;;;;;;;;;4854663;28;20057;-69
2023/06/15 06:20:51;;;;;;;7.85;4.15;;;;;;;;;;4847641;28;20170;-68
2023/06/15 06:23:17;;;;;;;8.88;4.68;;;;;;;;;;4844638;28;20132;-71
2023/06/15 06:25:42;;;;;;;8.52;4.10;;;;;;;;;;4853169;28;20048;-70
2023/06/15 06:28:09;;;;;;;8.85;3.97;;;;;;;;;;4862973;28;20046;-71
2023/06/15 06:30:38;;;;;;;7.88;4.18;;;;;;;;;;4944122;28;20041;-71
2023/06/15 06:33:04;;;;;;;8.38;4.10;;;;;;;;;;4849539;28;20056;-71
2023/06/15 06:35:29;;;;;;;7.90;4.07;;;;;;;;;;4857008;28;21770;-71
2023/06/15 06:37:54;;;;;;;8.30;3.70;;;;;;;;;;4863411;28;20037;-71
2023/06/15 06:40:22;;;;;;;7.78;3.80;;;;;;;;;;4845196;28;20057;-71
2023/06/15 06:42:47;;;;;;;7.90;4.10;;;;;;;;;;4855490;28;22535;-71
2023/06/15 06:45:13;;;;;;;7.72;3.30;;;;;;;;;;4853739;28;20598;-71
2023/06/15 06:47:38;;;;;;;7.88;3.10;;;;;;;;;;4848515;28;20033;-71
2023/06/15 06:50:05;;;;;;;7.85;3.17;;;;;;;;;;4846673;28;20049;-72
2023/06/15 06:52:30;;;;;;;10.15;4.13;;;;;;;;;;4861600;29;22396;-72
2023/06/15 06:54:56;;;;;;;9.60;4.15;;;;;;;;;;4853246;28;20045;-71
2023/06/15 06:57:21;;;;;;;10.02;4.97;;;;;;;;;;4875762;28;20038;-71
2023/06/15 06:59:46;;;;;;;8.63;4.20;;;;;;;;;;4862644;28;20459;-69
2023/06/15 07:02:12;;;;;;;10.35;3.83;;;;;;;;;;4844914;28;20033;-70
2023/06/15 07:04:37;;;;;;;12.35;4.45;;;;;;;;;;4842156;28;20056;-68
2023/06/15 07:07:05;;;;;;;8.88;4.35;;;;;;;;;;4863581;28;20128;-68
2023/06/15 07:09:34;;;;;;;10.35;4.18;;;;;;;;;;4926248;28;20089;-71
2023/06/15 07:12:00;;;;;;;7.85;4.80;;;;;;;;;;4850408;28;20075;-70
2023/06/15 07:14:26;;;;;;;8.27;4.53;;;;;;;;;;4861834;28;20049;-69
2023/06/15 07:16:51;;;;;;;12.38;4.10;;;;;;;;;;4861723;28;20104;-70
2023/06/15 07:19:17;;;;;;;6.05;3.50;;;;;;;;;;4843345;28;20045;-70
2023/06/15 07:21:44;;;;;;;6.53;3.33;;;;;;;;;;4863307;28;20047;-69
2023/06/15 07:24:12;;;;;;;7.40;3.15;;;;;;;;;;4863768;28;20050;-68
2023/06/15 07:26:37;;;;;;;9.57;3.10;;;;;;;;;;4849670;28;20037;-69
2023/06/15 07:29:02;;;;;;;4.97;3.03;;;;;;;;;;4848890;28;20056;-69
2023/06/15 07:31:28;;;;;;;8.85;3.00;;;;;;;;;;4847486;28;20052;-70
2023/06/15 07:33:54;;;;;;;8.88;3.47;;;;;;;;;;4842540;28;20422;-68
2023/06/15 07:36:19;;;;;;;6.35;3.28;;;;;;;;;;4857875;28;20079;-70
2023/06/15 07:38:45;;;;;;;8.95;3.50;;;;;;;;;;4861918;28;20048;-67
2023/06/15 07:41:10;;;;;;;8.43;3.42;;;;;;;;;;4894213;28;20049;-69
2023/06/15 07:43:38;;;;;;;5.32;3.10;;;;;;;;;;4846661;28;20107;-70
2023/06/15 07:46:08;;;;;;;6.05;3.42;;;;;;;;;;4847308;28;20719;-69
2023/06/15 07:48:33;;;;;;;6.38;3.05;;;;;;;;;;4853952;28;20561;-68
2023/06/15 07:50:58;;;;;;;9.00;3.42;;;;;;;;;;4855632;28;20034;-69
2023/06/15 07:53:26;;;;;;;6.65;3.20;;;;;;;;;;4861118;28;20061;-69
2023/06/15 07:55:51;;;;;;;8.40;3.15;;;;;;;;;;4873831;28;20037;-69
2023/06/15 07:58:17;;;;;;;10.05;3.80;;;;;;;;;;4844465;28;20052;-69
2023/06/15 08:00:42;;;;;;;9.50;3.78;;;;;;;;;;4844565;28;20039;-70
2023/06/15 08:03:07;;;;;;;7.28;3.40;;;;;;;;;;4863150;28;20041;-69
2023/06/15 08:05:32;;;;;;;6.65;3.40;;;;;;;;;;4933163;28;20072;-69
2023/06/15 08:07:58;;;;;;;8.00;4.10;;;;;;;;;;4844349;28;20037;-68
2023/06/15 08:10:25;;;;;;;7.55;3.92;;;;;;;;;;4842379;28;20041;-69
2023/06/15 08:12:51;;;;;;;10.15;3.50;;;;;;;;;;4842618;28;20043;-67
2023/06/15 08:15:16;;;;;;;7.30;3.70;;;;;;;;;;4845768;28;20048;-66
2023/06/15 08:17:43;;;;;;;8.63;3.83;;;;;;;;;;4852454;28;20108;-66
2023/06/15 08:20:09;;;;;;;6.50;3.80;;;;;;;;;;4860183;28;20033;-67
2023/06/15 08:22:36;;;;;;;8.98;3.95;;;;;;;;;;4845640;28;20038;-67
2023/06/15 08:25:05;;;;;;;8.20;3.40;;;;;;;;;;4840079;28;20423;-67
2023/06/15 08:27:30;;;;;;;7.30;3.55;;;;;;;;;;4863318;28;20044;-67
2023/06/15 08:29:57;;;;;;;5.28;3.60;;;;;;;;;;4884638;28;20041;-67
2023/06/15 08:32:22;;;;;;;8.52;3.78;;;;;;;;;;4847454;28;20553;-66
2023/06/15 08:34:51;;;;;;;5.60;3.30;;;;;;;;;;4842509;28;20041;-65
2023/06/15 08:37:16;;;;;;;7.63;3.47;;;;;;;;;;4907156;28;20777;-67
2023/06/15 08:39:42;;;;;;;7.80;3.80;;;;;;;;;;4861075;28;20041;-66
2023/06/15 08:42:10;;;;;;;7.28;3.53;;;;;;;;;;4853703;28;20037;-67
2023/06/15 08:44:35;;;;;;;6.07;3.10;;;;;;;;;;4846161;28;20043;-67
2023/06/15 08:47:04;;;;;;;6.43;3.70;;;;;;;;;;4849384;28;21007;-67
2023/06/15 08:49:30;;;;;;;9.48;3.60;;;;;;;;;;4840769;28;20525;-66
2023/06/15 08:51:58;;;;;;;7.70;4.00;;;;;;;;;;4840765;29;20506;-66
2023/06/15 08:54:27;;;;;;;12.43;3.80;;;;;;;;;;4854513;28;20093;-66
2023/06/15 08:56:52;;;;;;;9.52;3.80;;;;;;;;;;4923826;28;20525;-65
2023/06/15 08:59:18;;;;;;;9.80;3.67;;;;;;;;;;4842801;28;20041;-68
2023/06/15 09:01:44;;;;;;;6.43;3.65;;;;;;;;;;4841672;28;20046;-65
2023/06/15 09:04:09;;;;;;;7.50;3.78;;;;;;;;;;4859055;28;20043;-65
2023/06/15 09:06:35;;;;;;;6.38;3.10;;;;;;;;;;4891679;28;20069;-66
2023/06/15 09:09:02;;;;;;;5.78;3.20;;;;;;;;;;4862064;28;20045;-67
2023/06/15 09:11:28;;;;;;;9.35;3.92;;;;;;;;;;4848598;28;20041;-66
2023/06/15 09:13:53;;;;;;;8.00;3.15;;;;;;;;;;4859786;28;20092;-66
2023/06/15 09:16:19;;;;;;;7.13;3.22;;;;;;;;;;4857971;28;20113;-66
2023/06/15 09:18:47;;;;;;;11.65;4.55;;;;;;;;;;4840789;28;20045;-66
2023/06/15 09:21:16;;;;;;;7.68;3.03;;;;;;;;;;4924696;28;20041;-66
2023/06/15 09:23:45;;;;;;;4.88;2.83;;;;;;;;;;4850584;28;20699;-65
2023/06/15 09:26:25;;;;;;;5.22;3.05;;;;;;;;;;4927587;28;20037;-70
2023/06/15 09:28:54;;;;;;;5.65;2.80;;;;;;;;;;4847092;28;20045;-68
2023/06/15 09:31:35;;;;;;;6.13;2.70;;;;;;;;;;4845500;28;20048;-70
2023/06/15 09:34:00;;;;;;;;;;;;;;;;;;4852639;28;20146;-70
2023/06/15 09:36:32;;;;;;;4.90;2.50;;;;;;;;;;4859471;28;19919;-70
2023/06/15 09:38:57;;;;;;;7.38;2.58;;;;;;;;;;4861441;28;20133;-69
2023/06/15 09:41:25;;;;;;;6.18;2.83;;;;;;;;;;4841142;28;20048;-70
2023/06/15 09:43:50;;;;;;;7.13;2.50;;;;;;;;;;4842238;28;20040;-69
2023/06/15 09:46:18;;;;;;;7.50;2.50;;;;;;;;;;4843295;28;20167;-69
2023/06/15 09:48:45;;;;;;;6.60;2.65;;;;;;;;;;4852653;28;20100;-71
2023/06/15 09:51:11;;;;;;;8.90;2.88;;;;;;;;;;4851794;28;20038;-72
2023/06/15 09:53:37;;;;;;;6.38;2.90;;;;;;;;;;4907312;28;20048;-71
2023/06/15 09:56:02;;;;;;;5.40;2.72;;;;;;;;;;4844929;28;20033;-72
2023/06/15 09:58:30;;;;;;;5.20;2.45;;;;;;;;;;4840215;28;20123;-71
2023/06/15 10:01:03;;;;;;;4.43;2.42;;;;;;;;;;4849905;28;20603;-72
2023/06/15 10:03:30;;;;;;;6.18;2.80;;;;;;;;;;4849451;28;20066;-72
2023/06/15 10:06:08;;;;;;;11.10;2.70;;;;;;;;;;4847157;28;20622;-71
2023/06/15 10:08:34;;;;;;;6.70;2.45;;;;;;;;;;4844640;28;20044;-68
2023/06/15 10:11:02;;;;;;;6.53;2.50;;;;;;;;;;4842634;28;20116;-71
2023/06/15 10:14:02;;;;;;;6.55;2.60;;;;;;;;;;4850959;28;20673;-70
2023/06/15 10:16:28;;;;;;;7.65;2.92;;;;;;;;;;4886863;29;20036;-71
2023/06/15 10:19:01;;;;;;;4.55;2.45;;;;;;;;;;4858110;28;20588;-71
2023/06/15 10:21:27;;;;;;;5.00;2.00;;;;;;;;;;4846044;28;20546;-72
2023/06/15 10:23:57;;;;;;;6.78;2.47;;;;;;;;;;4842445;28;20042;-70
2023/06/15 10:26:22;;;;;;;5.30;2.38;;;;;;;;;;4862603;28;20747;-72
2023/06/15 10:28:50;;;;;;;9.20;2.55;;;;;;;;;;4856329;28;20052;-73
2023/06/15 10:31:34;;;;;;;5.97;2.30;;;;;;;;;;4850209;28;20048;-70
2023/06/15 10:34:04;;;;;;;5.88;2.53;;;;;;;;;;4845826;28;20072;-73
2023/06/15 10:36:30;;;;;;;9.10;2.80;;;;;;;;;;4844292;28;20068;-73
2023/06/15 10:39:03;;;;;;;5.55;2.40;;;;;;;;;;4843550;28;20518;-73
2023/06/15 10:41:29;;;;;;;4.40;2.45;;;;;;;;;;4852845;28;20566;-73
2023/06/15 10:44:01;;;;;;;6.43;2.47;;;;;;;;;;4851739;28;20056;-73
2023/06/15 10:46:28;;;;;;;6.35;2.38;;;;;;;;;;4858820;28;20044;-73
2023/06/15 10:48:54;;;;;;;7.88;2.50;;;;;;;;;;4844938;28;20052;-72
2023/06/15 10:51:21;;;;;;;7.93;2.80;;;;;;;;;;4848241;28;20049;-72
2023/06/15 10:53:46;;;;;;;4.60;2.28;;;;;;;;;;4846453;28;20049;-72
2023/06/15 10:56:21;;;;;;;5.25;2.60;;;;;;;;;;4860387;28;20045;-73
2023/06/15 10:58:53;;;;;;;4.32;2.10;;;;;;;;;;4861463;28;20119;-72
2023/06/15 11:01:23;;;;;;;6.68;2.58;;;;;;;;;;4843756;28;20125;-72
2023/06/15 11:03:49;;;;;;;6.28;2.15;;;;;;;;;;4844845;28;20036;-70
2023/06/15 11:06:18;;;;;;;7.95;2.50;;;;;;;;;;4845207;28;20439;-71
2023/06/15 11:08:47;;;;;;;8.25;2.58;;;;;;;;;;4846682;28;20872;-72
2023/06/15 11:11:13;;;;;;;5.85;2.55;;;;;;;;;;4856556;28;20041;-72
2023/06/15 11:13:56;;;;;;;6.47;3.22;;;;;;;;;;4853354;28;20107;-72
2023/06/15 11:16:26;;;;;;;7.55;2.90;;;;;;;;;;4862813;28;20677;-72
2023/06/15 11:19:03;;;;;;;11.93;3.13;;;;;;;;;;4860572;28;20049;-69
2023/06/15 11:21:29;;;;;;;6.88;2.97;;;;;;;;;;4861904;28;20036;-69
2023/06/15 11:23:55;;;;;;;7.25;3.38;;;;;;;;;;4861215;28;20532;-71
2023/06/15 11:26:23;;;;;;;6.57;2.80;;;;;;;;;;4861480;28;20037;-71
2023/06/15 11:28:48;;;;;;;6.70;2.50;;;;;;;;;;4858680;28;20136;-71
2023/06/15 11:31:16;;;;;;;5.70;2.60;;;;;;;;;;4859926;28;20168;-72
2023/06/15 11:33:42;;;;;;;5.45;2.28;;;;;;;;;;4860074;28;20049;-69
2023/06/15 11:36:11;;;;;;;7.22;2.90;;;;;;;;;;4860856;28;20045;-68
2023/06/15 11:38:37;;;;;;;7.22;3.15;;;;;;;;;;4859842;28;20541;-71
2023/06/15 11:41:03;;;;;;;8.38;3.20;;;;;;;;;;4858671;28;20051;-70
2023/06/15 11:43:42;;;;;;;7.85;3.20;;;;;;;;;;4858086;28;20033;-70
2023/06/15 11:46:15;;;;;;;5.35;3.10;;;;;;;;;;4857513;28;20048;-72
2023/06/15 11:48:42;;;;;;;7.88;3.10;;;;;;;;;;4858869;28;20371;-70
2023/06/15 11:51:08;;;;;;;8.07;3.08;;;;;;;;;;4860447;28;20136;-69
2023/06/15 11:53:37;;;;;;;7.63;3.17;;;;;;;;;;4859447;28;20049;-72
2023/06/15 11:56:02;;;;;;;5.40;3.22;;;;;;;;;;4860272;28;20040;-71
2023/06/15 11:58:28;;;;;;;5.75;3.15;;;;;;;;;;4872607;28;20040;-72
2023/06/15 12:00:53;;;;;;;6.22;2.80;;;;;;;;;;4857684;28;20395;-72
2023/06/15 12:03:18;;;;;;;8.57;2.85;;;;;;;;;;4856153;28;20532;-70
2023/06/15 12:05:44;;;;;;;12.68;3.03;;;;;;;;;;4873923;28;20091;-70
2023/06/15 12:08:10;;;;;;;13.18;3.85;;;;;;;;;;4857141;28;20037;-70
2023/06/15 12:10:38;;;;;;;9.32;3.10;;;;;;;;;;4856121;28;20056;-69
2023/06/15 12:13:10;;;;;;;6.30;2.90;;;;;;;;;;4856750;28;20040;-70
2023/06/15 12:15:37;;;;;;;4.97;2.88;;;;;;;;;;4858258;28;20370;-68
2023/06/15 12:18:06;;;;;;;6.07;2.80;;;;;;;;;;4872990;28;20043;-69
2023/06/15 12:20:35;;;;;;;6.07;2.78;;;;;;;;;;4860060;28;20040;-69
2023/06/15 12:23:00;;;;;;;6.50;2.97;;;;;;;;;;4860024;28;20115;-68
2023/06/15 12:25:47;;;;;;;5.32;3.17;;;;;;;;;;4858405;28;20082;-70
2023/06/15 12:28:16;;;;;;;5.97;2.50;;;;;;;;;;4859605;28;20082;-69
2023/06/15 12:30:44;;;;;;;8.73;2.70;;;;;;;;;;4859078;28;20041;-68
2023/06/15 12:33:25;;;;;;;13.57;3.28;;;;;;;;;;4859595;29;20059;-67
2023/06/15 12:35:54;;;;;;;6.32;2.97;;;;;;;;;;4859181;28;20086;-67
2023/06/15 12:38:20;;;;;;;6.85;2.80;;;;;;;;;;4858086;28;20305;-66
2023/06/15 12:40:48;;;;;;;9.23;2.70;;;;;;;;;;4857470;28;20056;-68
2023/06/15 12:43:19;;;;;;;5.78;2.67;;;;;;;;;;4860721;28;20047;-73
2023/06/15 12:45:45;;;;;;;5.15;2.63;;;;;;;;;;4856241;28;21373;-69
2023/06/15 12:48:10;;;;;;;8.27;2.70;;;;;;;;;;4859253;28;20087;-72
2023/06/15 12:50:36;;;;;;;5.88;2.50;;;;;;;;;;4859600;28;20033;-71
2023/06/15 12:53:02;;;;;;;7.43;2.60;;;;;;;;;;4858834;28;20060;-71
2023/06/15 12:55:28;;;;;;;4.47;2.50;;;;;;;;;;4858611;28;20052;-70
2023/06/15 12:57:54;;;;;;;8.18;2.60;;;;;;;;;;4857208;28;20054;-73
2023/06/15 13:00:20;;;;;;;8.93;2.70;;;;;;;;;;4861973;28;20041;-70
2023/06/15 13:02:45;;;;;;;10.45;2.50;;;;;;;;;;4863925;28;20025;-67
2023/06/15 13:05:11;;;;;;;8.35;2.60;;;;;;;;;;4863733;28;20049;-69
2023/06/15 13:07:37;;;;;;;8.77;2.80;;;;;;;;;;4877939;28;20115;-69
2023/06/15 13:10:02;;;;;;;7.20;2.78;;;;;;;;;;4862504;28;20103;-70
2023/06/15 13:12:28;;;;;;;8.40;2.80;;;;;;;;;;4866806;28;20482;-70
2023/06/15 13:14:54;;;;;;;7.60;2.60;;;;;;;;;;4863879;28;20132;-71
2023/06/15 13:17:19;;;;;;;6.88;2.90;;;;;;;;;;4864517;28;20074;-71
2023/06/15 13:19:44;;;;;;;7.82;2.40;;;;;;;;;;4863124;28;20051;-71
2023/06/15 13:22:10;;;;;;;5.22;2.40;;;;;;;;;;4862150;28;20124;-67
2023/06/15 13:24:36;;;;;;;7.50;2.85;;;;;;;;;;4863116;28;20127;-70
2023/06/15 13:27:08;;;;;;;9.73;2.80;;;;;;;;;;4861618;28;20056;-70
2023/06/15 13:29:37;;;;;;;6.53;2.40;;;;;;;;;;4862762;28;20050;-70
2023/06/15 13:32:03;;;;;;;13.10;2.90;;;;;;;;;;4862956;28;20045;-70
2023/06/15 13:34:31;;;;;;;13.32;2.80;;;;;;;;;;4860882;28;20139;-71
2023/06/15 13:36:57;;;;;;;21.80;3.45;;;;;;;;;;4863714;28;20124;-69
2023/06/15 13:39:22;;;;;;;7.65;2.60;;;;;;;;;;4863409;28;20045;-69
2023/06/15 13:41:47;;;;;;;8.00;2.33;;;;;;;;;;4863628;28;20042;-70
2023/06/15 13:44:15;;;;;;;7.70;2.33;;;;;;;;;;4860165;28;20122;-70
2023/06/15 13:46:40;;;;;;;6.45;2.58;;;;;;;;;;4863251;28;20032;-70
2023/06/15 13:49:06;;;;;;;9.70;2.97;;;;;;;;;;4864963;29;20763;-71
2023/06/15 13:51:32;;;;;;;10.55;3.30;;;;;;;;;;4862943;28;20041;-68
2023/06/15 13:54:00;;;;;;;13.43;3.10;;;;;;;;;;4864804;28;20701;-71
2023/06/15 13:56:25;;;;;;;9.82;2.63;;;;;;;;;;4860848;28;20068;-72
2023/06/15 13:58:50;;;;;;;13.73;3.30;;;;;;;;;;4863303;28;20620;-69
2023/06/15 14:01:19;;;;;;;8.48;2.92;;;;;;;;;;4861796;28;20041;-72
2023/06/15 14:03:45;;;;;;;9.48;3.20;;;;;;;;;;4862996;28;20741;-74
2023/06/15 14:06:10;;;;;;;10.60;3.00;;;;;;;;;;4859696;28;20059;-70
2023/06/15 14:08:36;;;;;;;11.90;2.83;;;;;;;;;;4876314;28;20044;-69
2023/06/15 14:11:03;;;;;;;12.27;2.97;;;;;;;;;;4860684;28;20664;-71
2023/06/15 14:13:28;;;;;;;13.93;3.08;;;;;;;;;;4861818;28;20198;-70
2023/06/15 14:15:55;;;;;;;10.45;3.25;;;;;;;;;;4875806;28;20052;-73
2023/06/15 14:18:23;;;;;;;10.02;3.03;;;;;;;;;;4863076;28;20044;-72
2023/06/15 14:20:48;;;;;;;11.18;2.92;;;;;;;;;;4862454;29;20033;-73
2023/06/15 14:23:14;;;;;;;11.43;2.97;;;;;;;;;;4876117;28;20048;-72
2023/06/15 14:25:40;;;;;;;14.93;3.50;;;;;;;;;;4860976;28;20116;-71
2023/06/15 14:28:08;;;;;;;13.48;3.42;;;;;;;;;;4875999;28;21945;-73
2023/06/15 14:30:33;;;;;;;11.68;3.05;;;;;;;;;;4862836;28;20040;-73
2023/06/15 14:32:59;;;;;;;10.30;3.22;;;;;;;;;;4860684;28;20036;-66
2023/06/15 14:35:24;;;;;;;8.95;3.20;;;;;;;;;;4863389;28;20060;-75
2023/06/15 14:37:51;;;;;;;11.15;3.00;;;;;;;;;;4875768;28;20056;-73
2023/06/15 14:40:17;;;;;;;11.10;3.50;;;;;;;;;;4862703;28;20044;-74